createdAt,value
2023-05-24T00:00:33.123Z,0.20
2023-05-24T00:02:34.670Z,0.20
2023-05-24T00:04:36.248Z,0.17
2023-05-24T00:06:37.836Z,0.10
2023-05-24T00:08:39.269Z,0.10
2023-05-24T00:10:40.913Z,0.20
2023-05-24T00:12:42.843Z,0.10
2023-05-24T00:14:44.294Z,0.10
2023-05-24T00:16:46.547Z,0.10
2023-05-24T00:18:48.174Z,0.17
2023-05-24T00:20:49.997Z,0.10
2023-05-24T00:22:51.816Z,0.10
2023-05-24T00:24:53.448Z,0.28
2023-05-24T00:26:54.980Z,0.10
2023-05-24T00:28:56.432Z,0.20
2023-05-24T00:30:58.238Z,0.15
2023-05-24T00:32:59.904Z,0.10
2023-05-24T00:35:01.595Z,0.10
2023-05-24T00:37:03.035Z,0.22
2023-05-24T00:39:04.613Z,0.10
2023-05-24T00:41:06.214Z,0.20
2023-05-24T00:43:07.637Z,0.10
2023-05-24T00:45:09.463Z,0.10
2023-05-24T00:47:11.160Z,0.10
2023-05-24T00:49:12.718Z,0.10
2023-05-24T00:51:14.846Z,0.10
2023-05-24T00:53:16.401Z,0.10
2023-05-24T00:55:18.066Z,0.20
2023-05-24T00:57:19.740Z,0.10
2023-05-24T00:59:21.260Z,0.20
2023-05-24T01:01:25.993Z,0.10
2023-05-24T01:03:29.439Z,0.20
2023-05-24T01:05:31.319Z,0.10
2023-05-24T01:07:32.842Z,0.20
2023-05-24T01:09:43.458Z,0.15
2023-05-24T01:12:00.034Z,0.20
2023-05-24T01:14:14.878Z,0.10
2023-05-24T01:16:32.870Z,0.20
2023-05-24T01:18:41.665Z,0.10
2023-05-24T01:20:43.855Z,0.10
2023-05-24T01:23:04.882Z,0.20
2023-05-24T01:27:08.183Z,0.10
2023-05-24T01:29:10.369Z,0.10
2023-05-24T01:31:13.200Z,0.10
2023-05-24T01:33:14.997Z,0.10
2023-05-24T01:35:16.465Z,0.20
2023-05-24T01:37:18.046Z,0.10
2023-05-24T01:39:20.520Z,0.10
2023-05-24T01:41:36.319Z,0.10
2023-05-24T01:43:40.125Z,0.20
2023-05-24T01:45:54.205Z,0.10
2023-05-24T01:47:58.820Z,0.10
2023-05-24T01:50:04.558Z,0.20
2023-05-24T01:52:12.306Z,0.10
2023-05-24T01:54:14.682Z,0.20
2023-05-24T01:56:17.164Z,0.20
2023-05-24T01:58:21.026Z,0.15
2023-05-24T02:00:22.795Z,0.10
2023-05-24T02:02:24.639Z,0.10
2023-05-24T02:04:26.305Z,0.10
2023-05-24T02:06:27.799Z,0.10
2023-05-24T02:08:29.336Z,0.10
2023-05-24T02:10:31.070Z,0.10
2023-05-24T02:12:32.611Z,0.10
2023-05-24T02:14:34.050Z,0.20
2023-05-24T02:16:42.426Z,0.10
2023-05-24T02:18:44.789Z,0.13
2023-05-24T02:20:46.938Z,0.17
2023-05-24T02:22:48.950Z,0.10
2023-05-24T02:24:50.409Z,0.20
2023-05-24T02:26:51.844Z,0.20
2023-05-24T02:28:53.404Z,0.10
2023-05-24T02:30:55.132Z,0.20
2023-05-24T02:32:57.352Z,0.20
2023-05-24T02:35:01.939Z,0.15
2023-05-24T02:37:04.823Z,0.13
2023-05-24T02:39:06.509Z,0.15
2023-05-24T02:41:09.182Z,0.15
2023-05-24T02:43:10.857Z,0.10
2023-05-24T02:45:12.312Z,0.10
2023-05-24T02:47:13.875Z,0.10
2023-05-24T02:49:15.577Z,0.10
2023-05-24T02:51:17.000Z,0.10
2023-05-24T02:53:18.725Z,0.10
2023-05-24T02:55:20.244Z,0.10
2023-05-24T02:57:21.793Z,0.10
2023-05-24T02:59:23.945Z,0.10
2023-05-24T03:01:25.510Z,0.10
2023-05-24T03:03:27.174Z,0.10
2023-05-24T03:05:28.753Z,0.10
2023-05-24T03:07:30.462Z,0.22
2023-05-24T03:09:32.041Z,0.20
2023-05-24T03:11:33.929Z,0.20
2023-05-24T03:13:35.623Z,0.10
2023-05-24T03:15:37.154Z,0.10
2023-05-24T03:17:38.765Z,0.10
2023-05-24T03:19:40.364Z,0.10
2023-05-24T03:21:41.785Z,0.20
2023-05-24T03:23:43.456Z,0.10
2023-05-24T03:25:45.134Z,0.10
2023-05-24T03:27:46.599Z,0.10
2023-05-24T03:29:48.177Z,0.10
2023-05-24T03:31:49.648Z,0.10
2023-05-24T03:33:51.522Z,0.10
2023-05-24T03:35:53.024Z,0.20
2023-05-24T03:37:54.575Z,0.10
2023-05-24T03:39:56.039Z,0.13
2023-05-24T03:41:57.495Z,0.10
2023-05-24T03:43:59.996Z,0.10
2023-05-24T03:46:01.678Z,0.10
2023-05-24T03:48:03.368Z,0.13
2023-05-24T03:50:05.244Z,0.20
2023-05-24T03:52:06.714Z,0.20
2023-05-24T03:54:08.155Z,0.20
2023-05-24T03:56:09.604Z,0.10
2023-05-24T03:58:12.524Z,0.10
2023-05-24T04:00:14.098Z,0.20
2023-05-24T04:02:16.059Z,0.10
2023-05-24T04:04:17.672Z,0.10
2023-05-24T04:06:19.229Z,0.10
2023-05-24T04:08:20.988Z,0.10
2023-05-24T04:10:22.984Z,0.10
2023-05-24T04:12:24.683Z,0.20
2023-05-24T04:14:26.168Z,0.00
2023-05-24T04:16:28.421Z,0.10
2023-05-24T04:18:30.059Z,0.10
2023-05-24T04:20:32.057Z,0.10
2023-05-24T04:22:36.018Z,0.10
2023-05-24T04:24:37.757Z,0.10
2023-05-24T04:26:39.595Z,0.17
2023-05-24T04:28:41.262Z,0.10
2023-05-24T04:30:46.053Z,0.10
2023-05-24T04:32:49.361Z,0.10
2023-05-24T04:34:52.503Z,0.20
2023-05-24T04:36:54.633Z,0.10
2023-05-24T04:39:02.718Z,0.10
2023-05-24T04:41:05.572Z,0.10
2023-05-24T04:43:09.121Z,0.20
2023-05-24T04:45:10.814Z,0.10
2023-05-24T04:47:12.882Z,0.20
2023-05-24T04:49:14.372Z,0.10
2023-05-24T04:51:16.117Z,0.10
2023-05-24T04:53:17.770Z,0.15
2023-05-24T04:55:19.382Z,0.20
2023-05-24T04:57:20.963Z,0.15
2023-05-24T04:59:22.499Z,0.17
2023-05-24T05:01:24.018Z,0.10
2023-05-24T05:03:25.760Z,0.10
2023-05-24T05:05:27.362Z,0.10
2023-05-24T05:07:29.150Z,0.20
2023-05-24T05:09:30.706Z,0.20
2023-05-24T05:11:32.173Z,0.05
2023-05-24T05:13:33.631Z,0.10
2023-05-24T05:15:35.063Z,0.17
2023-05-24T05:17:36.791Z,0.10
2023-05-24T05:19:38.229Z,0.15
2023-05-24T05:21:39.962Z,0.10
2023-05-24T05:23:41.459Z,0.05
2023-05-24T05:25:42.971Z,0.20
2023-05-24T05:27:44.382Z,0.20
2023-05-24T05:29:45.878Z,0.15
2023-05-24T05:31:47.455Z,0.20
2023-05-24T05:33:49.200Z,0.13
2023-05-24T05:35:52.822Z,0.10
2023-05-24T05:37:55.848Z,0.10
2023-05-24T05:39:57.571Z,0.10
2023-05-24T05:41:59.102Z,0.10
2023-05-24T05:44:00.608Z,0.10
2023-05-24T05:46:02.209Z,0.10
2023-05-24T05:48:03.769Z,0.20
2023-05-24T05:50:06.299Z,0.20
2023-05-24T05:52:07.840Z,0.10
2023-05-24T05:54:14.260Z,0.17
2023-05-24T05:56:16.130Z,0.10
2023-05-24T05:58:17.667Z,0.10
2023-05-24T06:00:19.550Z,0.10
2023-05-24T06:02:22.715Z,0.20
2023-05-24T06:04:24.385Z,0.15
2023-05-24T06:06:26.008Z,0.13
2023-05-24T06:08:30.889Z,0.10
2023-05-24T06:10:32.413Z,0.20
2023-05-24T06:12:34.255Z,0.10
2023-05-24T06:14:38.373Z,0.10
2023-05-24T06:16:43.654Z,0.10
2023-05-24T06:18:57.100Z,0.10
2023-05-24T06:21:03.805Z,0.20
2023-05-24T06:23:06.088Z,0.20
2023-05-24T06:25:07.895Z,0.10
2023-05-24T06:27:09.435Z,0.10
2023-05-24T06:29:11.003Z,0.20
2023-05-24T06:31:12.817Z,0.13
2023-05-24T06:33:14.385Z,0.10
2023-05-24T06:35:15.846Z,0.08
2023-05-24T06:37:17.555Z,0.20
2023-05-24T06:39:19.495Z,0.20
2023-05-24T06:41:21.565Z,0.10
2023-05-24T06:43:23.120Z,0.10
2023-05-24T06:45:24.795Z,0.10
2023-05-24T06:47:26.942Z,0.10
2023-05-24T06:49:28.505Z,0.17
2023-05-24T06:51:30.741Z,0.17
2023-05-24T06:53:32.421Z,0.20
2023-05-24T06:55:33.852Z,0.17
2023-05-24T06:57:35.454Z,0.10
2023-05-24T06:59:37.139Z,0.10
2023-05-24T07:01:40.005Z,0.20
2023-05-24T07:03:41.453Z,0.10
2023-05-24T07:05:43.023Z,0.13
2023-05-24T07:07:44.491Z,0.00
2023-05-24T07:09:47.220Z,0.20
2023-05-24T07:11:48.827Z,0.10
2023-05-24T07:13:50.290Z,0.10
2023-05-24T07:15:51.933Z,0.20
2023-05-24T07:17:53.440Z,0.10
2023-05-24T07:19:54.995Z,0.20
2023-05-24T07:21:56.810Z,0.13
2023-05-24T07:23:58.392Z,0.10
2023-05-24T07:26:00.171Z,0.10
2023-05-24T07:28:02.505Z,0.10
2023-05-24T07:30:06.533Z,0.10
2023-05-24T07:32:09.464Z,0.10
2023-05-24T07:34:11.225Z,0.10
2023-05-24T07:36:12.777Z,0.10
2023-05-24T07:38:14.272Z,0.10
2023-05-24T07:40:15.906Z,0.10
2023-05-24T07:42:17.480Z,0.20
2023-05-24T07:44:19.798Z,0.20
2023-05-24T07:46:21.976Z,0.20
2023-05-24T07:48:23.788Z,0.15
2023-05-24T07:50:26.499Z,0.10
2023-05-24T07:52:28.095Z,0.10
2023-05-24T07:54:29.750Z,0.10
2023-05-24T07:56:32.187Z,0.20
2023-05-24T07:58:33.778Z,0.10
2023-05-24T08:00:35.978Z,0.10
2023-05-24T08:02:38.149Z,0.10
2023-05-24T08:04:40.309Z,0.15
2023-05-24T08:06:42.157Z,0.10
2023-05-24T08:08:43.624Z,0.17
2023-05-24T08:10:45.112Z,0.20
2023-05-24T08:12:46.721Z,0.20
2023-05-24T08:14:48.273Z,0.10
2023-05-24T08:16:49.894Z,0.10
2023-05-24T08:18:54.098Z,0.20
2023-05-24T08:20:57.148Z,0.10
2023-05-24T08:22:58.596Z,0.20
2023-05-24T08:25:00.396Z,0.10
2023-05-24T08:27:02.824Z,0.20
2023-05-24T08:29:05.037Z,0.20
2023-05-24T08:31:07.405Z,0.10
2023-05-24T08:33:09.274Z,0.20
2023-05-24T08:35:20.963Z,0.10
2023-05-24T08:37:23.726Z,0.10
2023-05-24T08:39:25.154Z,0.20
2023-05-24T08:41:28.249Z,0.20
2023-05-24T08:43:32.029Z,0.15
2023-05-24T08:45:36.715Z,0.20
2023-05-24T08:47:38.940Z,0.20
2023-05-24T08:49:43.952Z,0.20
2023-05-24T08:51:45.657Z,0.20
2023-05-24T08:53:49.645Z,0.20
2023-05-24T08:55:54.265Z,0.20
2023-05-24T08:57:56.394Z,0.10
2023-05-24T08:59:58.139Z,0.20
2023-05-24T09:01:59.857Z,0.20
2023-05-24T09:04:03.030Z,0.20
2023-05-24T09:06:04.673Z,0.20
2023-05-24T09:08:06.355Z,0.25
2023-05-24T09:10:08.652Z,0.10
2023-05-24T09:12:14.909Z,0.13
2023-05-24T09:14:18.818Z,0.20
2023-05-24T09:16:20.414Z,0.20
2023-05-24T09:18:22.036Z,0.10
2023-05-24T09:20:23.654Z,0.20
2023-05-24T09:22:26.187Z,0.15
2023-05-24T09:24:28.114Z,0.20
2023-05-24T09:26:30.398Z,0.20
2023-05-24T09:28:32.466Z,0.20
2023-05-24T09:30:34.028Z,0.20
2023-05-24T09:32:35.773Z,0.20
2023-05-24T09:34:44.449Z,0.30
2023-05-24T09:36:46.332Z,0.20
2023-05-24T09:38:48.430Z,0.20
2023-05-24T09:40:57.566Z,0.15
2023-05-24T09:43:09.773Z,0.20
2023-05-24T09:45:12.332Z,0.20
2023-05-24T09:47:14.919Z,0.20
2023-05-24T09:49:16.670Z,0.10
2023-05-24T09:51:19.152Z,0.20
2023-05-24T09:53:22.172Z,0.20
2023-05-24T09:55:24.076Z,0.20
2023-05-24T09:57:26.733Z,0.20
2023-05-24T09:59:28.283Z,0.20
2023-05-24T10:01:30.117Z,0.10
2023-05-24T10:03:32.021Z,0.30
2023-05-24T10:05:34.068Z,0.20
2023-05-24T10:07:35.769Z,0.25
2023-05-24T10:09:37.252Z,0.25
2023-05-24T10:11:39.119Z,0.13
2023-05-24T10:13:41.798Z,0.30
2023-05-24T10:15:44.110Z,0.20
2023-05-24T10:17:45.560Z,0.17
2023-05-24T10:19:47.103Z,0.10
2023-05-24T10:21:49.408Z,0.10
2023-05-24T10:23:51.930Z,0.20
2023-05-24T10:25:59.947Z,0.22
2023-05-24T10:28:03.320Z,0.20
2023-05-24T10:30:13.935Z,0.20
2023-05-24T10:32:16.808Z,0.22
2023-05-24T10:34:18.323Z,0.20
2023-05-24T10:36:19.954Z,0.20
2023-05-24T10:38:22.655Z,0.15
2023-05-24T10:40:27.476Z,0.20
2023-05-24T10:42:31.251Z,0.20
2023-05-24T10:44:32.827Z,0.20
2023-05-24T10:46:34.829Z,0.20
2023-05-24T10:48:37.673Z,0.20
2023-05-24T10:50:39.787Z,0.20
2023-05-24T10:52:41.803Z,0.10
2023-05-24T10:55:05.030Z,0.20
2023-05-24T10:57:07.670Z,0.30
2023-05-24T10:59:09.274Z,0.25
2023-05-24T11:01:37.151Z,0.28
2023-05-24T11:03:40.718Z,0.10
2023-05-24T11:05:49.093Z,0.13
2023-05-24T11:07:58.574Z,0.10
2023-05-24T11:10:07.014Z,0.20
2023-05-24T11:12:08.862Z,0.28
2023-05-24T11:14:10.581Z,0.10
2023-05-24T11:16:31.973Z,0.17
2023-05-24T11:18:38.629Z,0.10
2023-05-24T11:20:42.620Z,0.10
2023-05-24T11:22:44.865Z,0.30
2023-05-24T11:24:46.782Z,0.20
2023-05-24T11:26:49.902Z,0.20
2023-05-24T11:28:52.596Z,0.20
2023-05-24T11:30:54.144Z,0.20
2023-05-24T11:32:57.185Z,0.20
2023-05-24T11:34:59.660Z,0.25
2023-05-24T11:37:01.989Z,0.20
2023-05-24T11:39:08.482Z,0.20
2023-05-24T11:41:10.029Z,0.30
2023-05-24T11:43:18.276Z,0.10
2023-05-24T11:45:20.124Z,0.20
2023-05-24T11:47:22.430Z,0.20
2023-05-24T11:49:24.031Z,0.20
2023-05-24T11:51:26.698Z,0.20
2023-05-24T11:53:28.248Z,0.20
2023-05-24T11:55:30.219Z,0.30
2023-05-24T11:57:41.182Z,0.20
2023-05-24T11:59:42.986Z,0.15
2023-05-24T12:01:44.664Z,0.20
2023-05-24T12:03:46.786Z,0.20
2023-05-24T12:05:49.256Z,0.20
2023-05-24T12:08:01.802Z,0.10
2023-05-24T12:10:04.290Z,0.15
2023-05-24T12:12:07.222Z,0.20
2023-05-24T12:14:15.842Z,0.20
2023-05-24T12:16:17.439Z,0.20
2023-05-24T12:18:23.115Z,0.10
2023-05-24T12:20:24.971Z,0.10
2023-05-24T12:22:27.660Z,0.20
2023-05-24T12:24:29.256Z,0.20
2023-05-24T12:26:30.740Z,0.20
2023-05-24T12:28:35.832Z,0.20
2023-05-24T12:30:38.103Z,0.20
2023-05-24T12:32:39.674Z,0.28
2023-05-24T12:34:42.158Z,0.30
2023-05-24T12:36:43.826Z,0.20
2023-05-24T12:38:45.498Z,0.20
2023-05-24T12:40:54.398Z,0.20
2023-05-24T12:43:05.444Z,0.25
2023-05-24T12:45:07.422Z,0.20
2023-05-24T12:47:09.542Z,0.32
2023-05-24T12:49:11.323Z,0.47
2023-05-24T12:51:12.752Z,0.50
2023-05-24T12:53:14.310Z,0.40
2023-05-24T12:55:16.210Z,0.40
2023-05-24T12:57:18.083Z,0.40
2023-05-24T12:59:19.646Z,0.30
2023-05-24T13:01:21.093Z,0.35
2023-05-24T13:03:22.829Z,0.30
2023-05-24T13:05:25.031Z,0.30
2023-05-24T13:07:26.691Z,0.30
2023-05-24T13:09:28.334Z,0.30
2023-05-24T13:11:31.274Z,0.30
2023-05-24T13:13:32.921Z,0.30
2023-05-24T13:15:34.428Z,0.20
2023-05-24T13:17:36.245Z,0.30
2023-05-24T13:19:37.829Z,0.20
2023-05-24T13:21:39.524Z,0.20
2023-05-24T13:23:43.159Z,0.30
2023-05-24T13:25:44.702Z,0.20
2023-05-24T13:27:46.346Z,0.20
2023-05-24T13:29:59.792Z,0.20
2023-05-24T13:32:02.903Z,0.22
2023-05-24T13:34:04.520Z,0.22
2023-05-24T13:36:07.124Z,0.20
2023-05-24T13:38:09.398Z,0.40
2023-05-24T13:40:11.102Z,0.20
2023-05-24T13:42:12.829Z,0.22
2023-05-24T13:44:15.128Z,0.22
2023-05-24T13:46:16.730Z,0.20
2023-05-24T13:48:18.408Z,0.30
2023-05-24T13:50:22.738Z,0.30
2023-05-24T13:52:24.507Z,0.30
2023-05-24T13:54:26.436Z,0.80
2023-05-24T13:56:32.706Z,1.10
2023-05-24T13:58:34.514Z,1.60
2023-05-24T14:00:36.386Z,1.75
2023-05-24T14:02:39.385Z,1.90
2023-05-24T14:04:41.873Z,2.15
2023-05-24T14:06:43.377Z,2.25
2023-05-24T14:08:44.843Z,1.98
2023-05-24T14:10:49.708Z,2.50
2023-05-24T14:13:07.872Z,2.45
2023-05-24T14:15:13.054Z,2.20
2023-05-24T14:17:14.507Z,2.30
2023-05-24T14:19:17.074Z,2.50
2023-05-24T14:21:19.716Z,2.50
2023-05-24T14:23:21.456Z,3.38
2023-05-24T14:25:22.988Z,3.63
2023-05-24T14:27:25.773Z,3.47
2023-05-24T14:29:27.542Z,2.92
2023-05-24T14:31:29.102Z,2.90
2023-05-24T14:33:30.567Z,2.60
2023-05-24T14:35:38.155Z,1.80
2023-05-24T14:37:39.627Z,1.90
2023-05-24T14:39:41.384Z,1.50
2023-05-24T14:41:42.811Z,1.20
2023-05-24T14:43:44.472Z,1.20
2023-05-24T14:45:46.267Z,1.00
2023-05-24T14:47:48.164Z,0.70
2023-05-24T14:49:49.633Z,0.80
2023-05-24T14:51:51.307Z,0.80
2023-05-24T14:53:52.765Z,0.60
2023-05-24T14:55:54.627Z,0.50
2023-05-24T14:57:56.144Z,0.50
2023-05-24T14:59:57.792Z,0.40
2023-05-24T15:01:59.218Z,0.50
2023-05-24T15:04:01.758Z,0.50
2023-05-24T15:06:03.566Z,0.30
2023-05-24T15:08:05.899Z,0.40
2023-05-24T15:10:08.136Z,0.35
2023-05-24T15:12:09.690Z,0.40
2023-05-24T15:14:11.167Z,0.30
2023-05-24T15:16:12.920Z,0.35
2023-05-24T15:18:14.748Z,0.20
2023-05-24T15:20:16.448Z,0.20
2023-05-24T15:22:18.086Z,0.17
2023-05-24T15:24:19.591Z,0.30
2023-05-24T15:26:21.384Z,0.30
2023-05-24T15:28:25.531Z,0.22
2023-05-24T15:30:28.010Z,0.38
2023-05-24T15:32:29.594Z,0.40
2023-05-24T15:34:31.309Z,0.30
2023-05-24T15:36:32.838Z,0.25
2023-05-24T15:38:34.655Z,0.30
2023-05-24T15:40:38.409Z,0.38
2023-05-24T15:42:39.935Z,0.30
2023-05-24T15:44:41.507Z,0.30
2023-05-24T15:46:43.539Z,0.30
2023-05-24T15:48:45.199Z,0.30
2023-05-24T15:52:51.541Z,0.30
2023-05-24T15:54:53.033Z,0.20
2023-05-24T15:56:54.499Z,0.30
2023-05-24T15:58:56.066Z,0.30
2023-05-24T16:00:57.727Z,0.28
2023-05-24T16:02:59.295Z,0.30
2023-05-24T16:05:00.864Z,0.30
2023-05-24T16:07:02.833Z,0.30
2023-05-24T16:09:05.303Z,0.30
2023-05-24T16:11:08.386Z,0.32
2023-05-24T16:13:10.490Z,0.30
2023-05-24T16:15:12.505Z,0.30
2023-05-24T16:17:15.235Z,0.32
2023-05-24T16:19:16.989Z,0.40
2023-05-24T16:21:18.543Z,0.38
2023-05-24T16:23:20.136Z,0.30
2023-05-24T16:25:21.718Z,0.30
2023-05-24T16:27:23.842Z,0.30
2023-05-24T16:29:25.390Z,0.30
2023-05-24T16:31:27.162Z,0.40
2023-05-24T16:33:28.682Z,0.30
2023-05-24T16:35:31.094Z,0.30
2023-05-24T16:37:33.296Z,0.35
2023-05-24T16:39:38.441Z,0.40
2023-05-24T16:41:40.639Z,0.30
2023-05-24T16:43:42.136Z,0.50
2023-05-24T16:45:43.878Z,0.25
2023-05-24T16:47:45.390Z,0.30
2023-05-24T16:49:46.975Z,0.30
2023-05-24T16:51:49.389Z,0.40
2023-05-24T16:53:50.874Z,0.30
2023-05-24T16:55:56.156Z,0.30
2023-05-24T16:57:57.638Z,0.35
2023-05-24T16:59:59.194Z,0.20
2023-05-24T17:02:00.849Z,0.20
2023-05-24T17:04:02.436Z,0.30
2023-05-24T17:06:05.350Z,0.40
2023-05-24T17:08:07.086Z,0.35
2023-05-24T17:10:09.190Z,0.30
2023-05-24T17:12:10.834Z,0.30
2023-05-24T17:14:12.343Z,0.30
2023-05-24T17:16:14.623Z,0.40
2023-05-24T17:18:16.112Z,0.30
2023-05-24T17:20:17.554Z,0.35
2023-05-24T17:22:19.195Z,0.30
2023-05-24T17:24:22.564Z,0.50
2023-05-24T17:26:24.373Z,0.30
2023-05-24T17:28:27.625Z,0.40
2023-05-24T17:30:30.392Z,0.30
2023-05-24T17:32:31.977Z,0.40
2023-05-24T17:34:33.387Z,0.30
2023-05-24T17:36:36.577Z,0.38
2023-05-24T17:38:38.055Z,0.20
2023-05-24T17:40:39.499Z,0.20
2023-05-24T17:42:43.160Z,0.20
2023-05-24T17:44:44.631Z,0.20
2023-05-24T17:46:46.279Z,0.28
2023-05-24T17:48:48.002Z,0.30
2023-05-24T17:50:49.439Z,0.20
2023-05-24T17:52:51.082Z,0.30
2023-05-24T17:54:52.788Z,0.20
2023-05-24T17:56:54.382Z,0.30
2023-05-24T17:58:55.879Z,0.20
2023-05-24T18:00:57.409Z,0.22
2023-05-24T18:02:59.038Z,0.30
2023-05-24T18:05:00.595Z,0.20
2023-05-24T18:07:02.117Z,0.20
2023-05-24T18:09:03.690Z,0.20
2023-05-24T18:11:08.661Z,0.30
2023-05-24T18:13:10.408Z,0.25
2023-05-24T18:15:11.833Z,0.30
2023-05-24T18:17:14.676Z,0.20
2023-05-24T18:19:16.379Z,0.20
2023-05-24T18:21:17.850Z,0.30
2023-05-24T18:23:20.427Z,0.22
2023-05-24T18:25:22.918Z,0.20
2023-05-24T18:27:26.690Z,0.17
2023-05-24T18:29:28.188Z,0.20
2023-05-24T18:31:29.611Z,0.17
2023-05-24T18:33:31.177Z,0.20
2023-05-24T18:35:32.724Z,0.30
2023-05-24T18:37:34.191Z,0.20
2023-05-24T18:39:35.727Z,0.20
2023-05-24T18:41:37.318Z,0.10
2023-05-24T18:43:38.868Z,0.20
2023-05-24T18:45:40.595Z,0.10
2023-05-24T18:47:42.336Z,0.20
2023-05-24T18:49:44.391Z,0.10
2023-05-24T18:51:45.945Z,0.20
2023-05-24T18:53:50.413Z,0.28
2023-05-24T18:55:51.949Z,0.17
2023-05-24T18:57:53.762Z,0.28
2023-05-24T18:59:55.668Z,0.10
2023-05-24T19:01:57.622Z,0.20
2023-05-24T19:03:59.115Z,0.10
2023-05-24T19:06:00.604Z,0.15
2023-05-24T19:08:02.203Z,0.20
2023-05-24T19:10:04.111Z,0.22
2023-05-24T19:12:05.946Z,0.20
2023-05-24T19:14:07.530Z,0.20
2023-05-24T19:16:09.075Z,0.20
2023-05-24T19:18:10.704Z,0.20
2023-05-24T19:20:12.339Z,0.20
2023-05-24T19:22:13.862Z,0.20
2023-05-24T19:24:15.298Z,0.20
2023-05-24T19:26:18.671Z,0.20
2023-05-24T19:28:20.139Z,0.20
2023-05-24T19:30:21.684Z,0.20
2023-05-24T19:32:23.211Z,0.10
2023-05-24T19:34:24.850Z,0.20
2023-05-24T19:36:26.316Z,0.20
2023-05-24T19:38:27.815Z,0.20
2023-05-24T19:40:29.400Z,0.17
2023-05-24T19:42:31.065Z,0.15
2023-05-24T19:44:32.560Z,0.20
2023-05-24T19:46:34.137Z,0.20
2023-05-24T19:48:35.626Z,0.13
2023-05-24T19:50:39.285Z,0.10
2023-05-24T19:52:40.775Z,0.10
2023-05-24T19:54:42.243Z,0.20
2023-05-24T19:56:43.818Z,0.10
2023-05-24T19:58:45.304Z,0.10
2023-05-24T20:00:46.783Z,0.20
2023-05-24T20:02:48.348Z,0.20
2023-05-24T20:04:49.893Z,0.20
2023-05-24T20:06:52.906Z,0.20
2023-05-24T20:08:55.736Z,0.20
2023-05-24T20:10:57.329Z,0.20
2023-05-24T20:12:58.787Z,0.20
2023-05-24T20:15:00.516Z,0.20
2023-05-24T20:17:02.089Z,0.10
2023-05-24T20:19:03.641Z,0.20
2023-05-24T20:21:05.207Z,0.20
2023-05-24T20:23:06.644Z,0.20
2023-05-24T20:25:08.941Z,0.17
2023-05-24T20:27:10.458Z,0.20
2023-05-24T20:29:11.918Z,0.10
2023-05-24T20:31:13.677Z,0.15
2023-05-24T20:33:15.156Z,0.10
2023-05-24T20:35:16.717Z,0.10
2023-05-24T20:37:18.299Z,0.20
2023-05-24T20:39:19.802Z,0.20
2023-05-24T20:41:21.317Z,0.30
2023-05-24T20:43:22.800Z,0.20
2023-05-24T20:45:24.305Z,0.17
2023-05-24T20:47:27.510Z,0.15
2023-05-24T20:49:30.195Z,0.10
2023-05-24T20:51:31.747Z,0.15
2023-05-24T20:53:33.181Z,0.10
2023-05-24T20:55:34.711Z,0.20
2023-05-24T20:57:36.392Z,0.10
2023-05-24T20:59:38.036Z,0.20
2023-05-24T21:01:39.623Z,0.10
2023-05-24T21:03:41.350Z,0.20
2023-05-24T21:05:43.137Z,0.20
2023-05-24T21:07:44.804Z,0.20
2023-05-24T21:09:46.315Z,0.20
2023-05-24T21:11:47.842Z,0.20
2023-05-24T21:13:49.349Z,0.20
2023-05-24T21:15:51.460Z,0.20
2023-05-24T21:17:52.922Z,0.15
2023-05-24T21:19:54.434Z,0.20
2023-05-24T21:21:55.933Z,0.30
2023-05-24T21:23:57.935Z,0.20
2023-05-24T21:25:59.505Z,0.20
2023-05-24T21:28:01.054Z,0.17
2023-05-24T21:30:03.372Z,0.20
2023-05-24T21:32:04.997Z,0.17
2023-05-24T21:34:06.778Z,0.20
2023-05-24T21:36:09.334Z,0.10
2023-05-24T21:38:10.932Z,0.20
2023-05-24T21:40:12.549Z,0.20
2023-05-24T21:42:14.083Z,0.20
2023-05-24T21:44:15.734Z,0.22
2023-05-24T21:46:17.318Z,0.20
2023-05-24T21:48:18.818Z,0.20
2023-05-24T21:50:20.376Z,0.20
2023-05-24T21:52:22.037Z,0.17
2023-05-24T21:54:23.684Z,0.20
2023-05-24T21:56:25.385Z,0.22
2023-05-24T21:58:26.937Z,0.20
2023-05-24T22:00:28.440Z,0.20
2023-05-24T22:02:30.767Z,0.17
2023-05-24T22:04:32.278Z,0.20
2023-05-24T22:06:33.756Z,0.28
2023-05-24T22:08:35.387Z,0.17
2023-05-24T22:10:36.831Z,0.13
2023-05-24T22:12:38.367Z,0.20
2023-05-24T22:14:39.951Z,0.20
2023-05-24T22:16:41.698Z,0.20
2023-05-24T22:18:43.220Z,0.20
2023-05-24T22:20:45.108Z,0.32
2023-05-24T22:22:53.508Z,0.30
2023-05-24T22:24:55.503Z,0.20
2023-05-24T22:26:56.983Z,0.10
2023-05-24T22:29:00.881Z,0.30
2023-05-24T22:31:03.415Z,0.38
2023-05-24T22:33:04.916Z,0.20
2023-05-24T22:35:06.648Z,0.20
2023-05-24T22:37:08.320Z,0.30
2023-05-24T22:39:09.942Z,0.20
2023-05-24T22:41:11.490Z,0.20
2023-05-24T22:43:12.985Z,0.30
2023-05-24T22:45:15.173Z,0.10
2023-05-24T22:47:17.052Z,0.20
2023-05-24T22:49:19.448Z,0.20
2023-05-24T22:51:21.170Z,0.30
2023-05-24T22:53:23.257Z,0.30
2023-05-24T22:55:24.710Z,0.20
2023-05-24T22:57:26.290Z,0.20
2023-05-24T22:59:28.232Z,0.20
2023-05-24T23:01:32.160Z,0.20
2023-05-24T23:03:33.791Z,0.20
2023-05-24T23:05:35.763Z,0.20
2023-05-24T23:07:38.031Z,0.13
2023-05-24T23:09:41.493Z,0.20
2023-05-24T23:11:43.424Z,0.20
2023-05-24T23:13:45.211Z,0.20
2023-05-24T23:15:46.997Z,0.30
2023-05-24T23:17:52.327Z,0.28
2023-05-24T23:19:53.894Z,0.25
2023-05-24T23:21:55.509Z,0.25
2023-05-24T23:23:56.989Z,0.30
2023-05-24T23:25:58.554Z,0.20
2023-05-24T23:28:00.447Z,0.20
2023-05-24T23:30:01.865Z,0.20
2023-05-24T23:32:03.553Z,0.30
2023-05-24T23:34:05.430Z,0.20
2023-05-24T23:36:07.176Z,0.20
2023-05-24T23:38:09.266Z,0.20
2023-05-24T23:40:11.180Z,0.30
2023-05-24T23:42:12.582Z,0.20
2023-05-24T23:44:14.202Z,0.20
2023-05-24T23:46:17.053Z,0.20
2023-05-24T23:48:19.894Z,0.20
2023-05-24T23:50:22.622Z,0.28
2023-05-24T23:52:25.036Z,0.20
2023-05-24T23:54:29.237Z,0.10
2023-05-24T23:56:30.939Z,0.28
2023-05-24T23:58:33.541Z,0.20
